sensor_id;sensor_type;location;lat;lon;timestamp;P1;durP1;ratioP1;P2;durP2;ratioP2
20251;SDS011;10284;58.364;15.550;2023-03-23T00:01:21;20.73;;;3.20;;
20251;SDS011;10284;58.364;15.550;2023-03-23T00:03:48;15.02;;;3.13;;
20251;SDS011;10284;58.364;15.550;2023-03-23T00:06:15;14.75;;;3.05;;
20251;SDS011;10284;58.364;15.550;2023-03-23T00:08:46;20.48;;;3.40;;
20251;SDS011;10284;58.364;15.550;2023-03-23T00:11:13;15.23;;;3.17;;
20251;SDS011;10284;58.364;15.550;2023-03-23T00:13:40;17.40;;;3.30;;
20251;SDS011;10284;58.364;15.550;2023-03-23T00:16:07;18.25;;;3.63;;
20251;SDS011;10284;58.364;15.550;2023-03-23T00:18:42;16.25;;;3.25;;
20251;SDS011;10284;58.364;15.550;2023-03-23T00:21:11;14.70;;;3.00;;
20251;SDS011;10284;58.364;15.550;2023-03-23T00:23:36;18.10;;;3.30;;
20251;SDS011;10284;58.364;15.550;2023-03-23T00:26:03;16.70;;;3.80;;
20251;SDS011;10284;58.364;15.550;2023-03-23T00:28:29;15.95;;;3.47;;
20251;SDS011;10284;58.364;15.550;2023-03-23T00:30:57;19.95;;;3.80;;
20251;SDS011;10284;58.364;15.550;2023-03-23T00:33:24;19.10;;;3.67;;
20251;SDS011;10284;58.364;15.550;2023-03-23T00:35:52;15.85;;;3.78;;
20251;SDS011;10284;58.364;15.550;2023-03-23T00:38:19;17.33;;;3.53;;
20251;SDS011;10284;58.364;15.550;2023-03-23T00:40:46;18.83;;;3.88;;
20251;SDS011;10284;58.364;15.550;2023-03-23T00:43:13;15.13;;;3.35;;
20251;SDS011;10284;58.364;15.550;2023-03-23T00:45:43;17.60;;;3.63;;
20251;SDS011;10284;58.364;15.550;2023-03-23T00:48:21;19.83;;;3.75;;
20251;SDS011;10284;58.364;15.550;2023-03-23T00:50:47;18.80;;;3.47;;
20251;SDS011;10284;58.364;15.550;2023-03-23T00:53:13;12.57;;;3.53;;
20251;SDS011;10284;58.364;15.550;2023-03-23T00:55:40;17.83;;;3.42;;
20251;SDS011;10284;58.364;15.550;2023-03-23T00:58:12;18.13;;;3.75;;
20251;SDS011;10284;58.364;15.550;2023-03-23T01:00:38;23.08;;;4.00;;
20251;SDS011;10284;58.364;15.550;2023-03-23T01:03:04;18.75;;;3.50;;
20251;SDS011;10284;58.364;15.550;2023-03-23T01:05:34;16.63;;;4.00;;
20251;SDS011;10284;58.364;15.550;2023-03-23T01:08:00;17.00;;;3.45;;
20251;SDS011;10284;58.364;15.550;2023-03-23T01:10:26;16.77;;;3.50;;
20251;SDS011;10284;58.364;15.550;2023-03-23T01:12:52;19.95;;;3.70;;
20251;SDS011;10284;58.364;15.550;2023-03-23T01:15:19;20.70;;;4.00;;
20251;SDS011;10284;58.364;15.550;2023-03-23T01:17:45;18.58;;;3.70;;
20251;SDS011;10284;58.364;15.550;2023-03-23T01:20:12;17.88;;;4.78;;
20251;SDS011;10284;58.364;15.550;2023-03-23T01:22:39;19.25;;;4.20;;
20251;SDS011;10284;58.364;15.550;2023-03-23T01:25:05;17.00;;;4.25;;
20251;SDS011;10284;58.364;15.550;2023-03-23T01:27:31;20.70;;;3.92;;
20251;SDS011;10284;58.364;15.550;2023-03-23T01:29:56;18.88;;;3.58;;
20251;SDS011;10284;58.364;15.550;2023-03-23T01:32:22;21.23;;;3.88;;
20251;SDS011;10284;58.364;15.550;2023-03-23T01:34:47;20.00;;;3.40;;
20251;SDS011;10284;58.364;15.550;2023-03-23T01:37:13;21.58;;;4.30;;
20251;SDS011;10284;58.364;15.550;2023-03-23T01:39:40;11.40;;;3.20;;
20251;SDS011;10284;58.364;15.550;2023-03-23T01:42:07;20.23;;;4.38;;
20251;SDS011;10284;58.364;15.550;2023-03-23T01:46:58;23.48;;;3.67;;
20251;SDS011;10284;58.364;15.550;2023-03-23T01:49:25;18.40;;;3.80;;
20251;SDS011;10284;58.364;15.550;2023-03-23T01:52:00;17.60;;;3.60;;
20251;SDS011;10284;58.364;15.550;2023-03-23T01:54:28;23.20;;;3.95;;
20251;SDS011;10284;58.364;15.550;2023-03-23T01:57:02;18.23;;;3.70;;
20251;SDS011;10284;58.364;15.550;2023-03-23T01:59:29;20.13;;;3.63;;
20251;SDS011;10284;58.364;15.550;2023-03-23T02:01:55;17.25;;;3.70;;
20251;SDS011;10284;58.364;15.550;2023-03-23T02:04:21;24.75;;;4.97;;
20251;SDS011;10284;58.364;15.550;2023-03-23T02:06:48;16.92;;;3.72;;
20251;SDS011;10284;58.364;15.550;2023-03-23T02:09:15;17.13;;;3.22;;
20251;SDS011;10284;58.364;15.550;2023-03-23T02:11:44;16.35;;;3.55;;
20251;SDS011;10284;58.364;15.550;2023-03-23T02:14:11;18.75;;;3.80;;
20251;SDS011;10284;58.364;15.550;2023-03-23T02:21:59;18.35;;;3.78;;
20251;SDS011;10284;58.364;15.550;2023-03-23T02:27:01;18.77;;;3.88;;
20251;SDS011;10284;58.364;15.550;2023-03-23T02:35:22;21.13;;;4.03;;
20251;SDS011;10284;58.364;15.550;2023-03-23T02:37:54;18.63;;;3.55;;
20251;SDS011;10284;58.364;15.550;2023-03-23T02:40:49;23.73;;;3.55;;
20251;SDS011;10284;58.364;15.550;2023-03-23T02:43:21;21.05;;;3.70;;
20251;SDS011;10284;58.364;15.550;2023-03-23T02:45:47;20.15;;;3.42;;
20251;SDS011;10284;58.364;15.550;2023-03-23T02:48:15;20.73;;;4.10;;
20251;SDS011;10284;58.364;15.550;2023-03-23T02:50:44;20.38;;;3.70;;
20251;SDS011;10284;58.364;15.550;2023-03-23T02:53:11;21.20;;;3.78;;
20251;SDS011;10284;58.364;15.550;2023-03-23T02:55:39;20.33;;;3.88;;
20251;SDS011;10284;58.364;15.550;2023-03-23T02:58:07;21.85;;;3.80;;
20251;SDS011;10284;58.364;15.550;2023-03-23T03:00:33;21.05;;;3.95;;
20251;SDS011;10284;58.364;15.550;2023-03-23T03:02:59;21.80;;;4.13;;
20251;SDS011;10284;58.364;15.550;2023-03-23T03:18:44;29.38;;;4.47;;
20251;SDS011;10284;58.364;15.550;2023-03-23T03:21:13;25.05;;;4.10;;
20251;SDS011;10284;58.364;15.550;2023-03-23T03:23:40;21.55;;;4.18;;
20251;SDS011;10284;58.364;15.550;2023-03-23T03:26:07;28.00;;;4.32;;
20251;SDS011;10284;58.364;15.550;2023-03-23T03:28:36;19.55;;;4.15;;
20251;SDS011;10284;58.364;15.550;2023-03-23T03:31:01;28.58;;;4.28;;
20251;SDS011;10284;58.364;15.550;2023-03-23T03:33:28;25.25;;;4.40;;
20251;SDS011;10284;58.364;15.550;2023-03-23T03:35:56;21.52;;;3.78;;
20251;SDS011;10284;58.364;15.550;2023-03-23T03:38:23;21.42;;;4.00;;
20251;SDS011;10284;58.364;15.550;2023-03-23T03:40:49;18.60;;;3.78;;
20251;SDS011;10284;58.364;15.550;2023-03-23T03:43:15;25.17;;;4.25;;
20251;SDS011;10284;58.364;15.550;2023-03-23T03:45:40;23.33;;;3.75;;
20251;SDS011;10284;58.364;15.550;2023-03-23T03:48:07;15.63;;;4.20;;
20251;SDS011;10284;58.364;15.550;2023-03-23T03:50:32;24.42;;;3.95;;
20251;SDS011;10284;58.364;15.550;2023-03-23T03:52:57;20.70;;;3.90;;
20251;SDS011;10284;58.364;15.550;2023-03-23T03:55:23;16.92;;;4.15;;
20251;SDS011;10284;58.364;15.550;2023-03-23T03:57:48;15.52;;;3.88;;
20251;SDS011;10284;58.364;15.550;2023-03-23T04:00:14;25.63;;;4.70;;
20251;SDS011;10284;58.364;15.550;2023-03-23T04:02:44;20.58;;;3.47;;
20251;SDS011;10284;58.364;15.550;2023-03-23T04:05:16;20.80;;;3.53;;
20251;SDS011;10284;58.364;15.550;2023-03-23T04:07:42;15.80;;;5.03;;
20251;SDS011;10284;58.364;15.550;2023-03-23T04:10:08;14.50;;;3.90;;
20251;SDS011;10284;58.364;15.550;2023-03-23T04:12:35;21.80;;;3.80;;
20251;SDS011;10284;58.364;15.550;2023-03-23T04:15:01;18.50;;;3.85;;
20251;SDS011;10284;58.364;15.550;2023-03-23T04:17:26;31.13;;;4.72;;
20251;SDS011;10284;58.364;15.550;2023-03-23T04:19:53;21.05;;;3.83;;
20251;SDS011;10284;58.364;15.550;2023-03-23T04:22:22;29.48;;;5.00;;
20251;SDS011;10284;58.364;15.550;2023-03-23T04:24:49;26.42;;;4.28;;
20251;SDS011;10284;58.364;15.550;2023-03-23T04:27:16;24.27;;;4.47;;
20251;SDS011;10284;58.364;15.550;2023-03-23T04:29:42;20.55;;;4.28;;
20251;SDS011;10284;58.364;15.550;2023-03-23T04:32:14;20.55;;;4.72;;
20251;SDS011;10284;58.364;15.550;2023-03-23T04:34:42;20.67;;;3.88;;
20251;SDS011;10284;58.364;15.550;2023-03-23T04:37:08;22.40;;;4.47;;
20251;SDS011;10284;58.364;15.550;2023-03-23T04:39:34;21.67;;;3.92;;
20251;SDS011;10284;58.364;15.550;2023-03-23T04:41:59;19.88;;;4.07;;
20251;SDS011;10284;58.364;15.550;2023-03-23T04:44:26;23.00;;;3.75;;
20251;SDS011;10284;58.364;15.550;2023-03-23T04:46:52;19.35;;;4.40;;
20251;SDS011;10284;58.364;15.550;2023-03-23T04:49:19;20.88;;;3.85;;
20251;SDS011;10284;58.364;15.550;2023-03-23T04:51:46;27.35;;;4.05;;
20251;SDS011;10284;58.364;15.550;2023-03-23T04:54:13;27.65;;;4.57;;
20251;SDS011;10284;58.364;15.550;2023-03-23T04:56:39;16.95;;;3.83;;
20251;SDS011;10284;58.364;15.550;2023-03-23T04:59:06;15.98;;;4.03;;
20251;SDS011;10284;58.364;15.550;2023-03-23T05:01:31;14.80;;;4.85;;
20251;SDS011;10284;58.364;15.550;2023-03-23T05:03:59;19.25;;;4.18;;
20251;SDS011;10284;58.364;15.550;2023-03-23T05:06:25;24.88;;;4.53;;
20251;SDS011;10284;58.364;15.550;2023-03-23T05:08:51;20.73;;;4.68;;
20251;SDS011;10284;58.364;15.550;2023-03-23T05:11:16;24.55;;;4.00;;
20251;SDS011;10284;58.364;15.550;2023-03-23T05:13:41;21.40;;;4.35;;
20251;SDS011;10284;58.364;15.550;2023-03-23T05:16:09;18.55;;;4.28;;
20251;SDS011;10284;58.364;15.550;2023-03-23T05:18:34;24.38;;;4.72;;
20251;SDS011;10284;58.364;15.550;2023-03-23T05:21:00;26.83;;;4.15;;
20251;SDS011;10284;58.364;15.550;2023-03-23T05:23:27;31.00;;;4.35;;
20251;SDS011;10284;58.364;15.550;2023-03-23T05:25:56;25.13;;;4.80;;
20251;SDS011;10284;58.364;15.550;2023-03-23T05:28:25;23.83;;;4.47;;
20251;SDS011;10284;58.364;15.550;2023-03-23T05:30:52;25.52;;;4.53;;
20251;SDS011;10284;58.364;15.550;2023-03-23T05:33:18;17.35;;;5.18;;
20251;SDS011;10284;58.364;15.550;2023-03-23T05:35:45;22.02;;;4.53;;
20251;SDS011;10284;58.364;15.550;2023-03-23T05:38:12;27.17;;;5.13;;
20251;SDS011;10284;58.364;15.550;2023-03-23T05:40:39;23.95;;;5.22;;
20251;SDS011;10284;58.364;15.550;2023-03-23T05:43:06;19.88;;;5.13;;
20251;SDS011;10284;58.364;15.550;2023-03-23T05:45:32;18.67;;;4.50;;
20251;SDS011;10284;58.364;15.550;2023-03-23T05:47:58;17.75;;;4.65;;
20251;SDS011;10284;58.364;15.550;2023-03-23T05:50:24;28.23;;;4.80;;
20251;SDS011;10284;58.364;15.550;2023-03-23T05:52:50;24.30;;;4.70;;
20251;SDS011;10284;58.364;15.550;2023-03-23T05:55:16;19.98;;;5.00;;
20251;SDS011;10284;58.364;15.550;2023-03-23T05:57:41;23.25;;;5.35;;
20251;SDS011;10284;58.364;15.550;2023-03-23T06:00:07;23.23;;;4.82;;
20251;SDS011;10284;58.364;15.550;2023-03-23T06:02:46;21.38;;;4.68;;
20251;SDS011;10284;58.364;15.550;2023-03-23T06:05:13;16.48;;;4.25;;
20251;SDS011;10284;58.364;15.550;2023-03-23T06:07:38;22.10;;;4.45;;
20251;SDS011;10284;58.364;15.550;2023-03-23T06:10:05;21.05;;;5.00;;
20251;SDS011;10284;58.364;15.550;2023-03-23T06:12:31;19.95;;;4.47;;
20251;SDS011;10284;58.364;15.550;2023-03-23T06:14:57;21.23;;;4.80;;
20251;SDS011;10284;58.364;15.550;2023-03-23T06:17:23;23.38;;;5.97;;
20251;SDS011;10284;58.364;15.550;2023-03-23T06:19:49;23.63;;;5.05;;
20251;SDS011;10284;58.364;15.550;2023-03-23T06:22:15;18.38;;;4.30;;
20251;SDS011;10284;58.364;15.550;2023-03-23T06:24:41;20.15;;;4.35;;
20251;SDS011;10284;58.364;15.550;2023-03-23T06:27:07;23.80;;;4.70;;
20251;SDS011;10284;58.364;15.550;2023-03-23T06:29:34;17.17;;;4.50;;
20251;SDS011;10284;58.364;15.550;2023-03-23T06:32:00;12.95;;;3.90;;
20251;SDS011;10284;58.364;15.550;2023-03-23T06:34:27;22.83;;;4.25;;
20251;SDS011;10284;58.364;15.550;2023-03-23T06:36:53;18.23;;;4.00;;
20251;SDS011;10284;58.364;15.550;2023-03-23T06:39:18;17.05;;;3.88;;
20251;SDS011;10284;58.364;15.550;2023-03-23T06:41:44;21.45;;;3.83;;
20251;SDS011;10284;58.364;15.550;2023-03-23T06:44:09;18.42;;;3.80;;
20251;SDS011;10284;58.364;15.550;2023-03-23T06:46:38;14.88;;;3.83;;
20251;SDS011;10284;58.364;15.550;2023-03-23T06:49:03;13.02;;;3.83;;
20251;SDS011;10284;58.364;15.550;2023-03-23T06:51:30;13.75;;;3.25;;
20251;SDS011;10284;58.364;15.550;2023-03-23T06:53:55;14.23;;;3.85;;
20251;SDS011;10284;58.364;15.550;2023-03-23T06:56:22;13.73;;;3.30;;
20251;SDS011;10284;58.364;15.550;2023-03-23T06:58:47;18.38;;;3.58;;
20251;SDS011;10284;58.364;15.550;2023-03-23T07:01:13;10.57;;;2.95;;
20251;SDS011;10284;58.364;15.550;2023-03-23T07:03:40;17.20;;;3.47;;
20251;SDS011;10284;58.364;15.550;2023-03-23T07:06:06;14.75;;;3.72;;
20251;SDS011;10284;58.364;15.550;2023-03-23T07:08:33;13.30;;;3.95;;
20251;SDS011;10284;58.364;15.550;2023-03-23T07:10:58;16.85;;;3.97;;
20251;SDS011;10284;58.364;15.550;2023-03-23T07:13:24;20.42;;;4.05;;
20251;SDS011;10284;58.364;15.550;2023-03-23T07:15:50;15.35;;;3.53;;
20251;SDS011;10284;58.364;15.550;2023-03-23T07:18:15;19.55;;;3.53;;
20251;SDS011;10284;58.364;15.550;2023-03-23T07:20:41;16.60;;;4.00;;
20251;SDS011;10284;58.364;15.550;2023-03-23T07:23:07;15.32;;;3.75;;
20251;SDS011;10284;58.364;15.550;2023-03-23T07:25:33;13.95;;;3.47;;
20251;SDS011;10284;58.364;15.550;2023-03-23T07:28:00;15.38;;;3.45;;
20251;SDS011;10284;58.364;15.550;2023-03-23T07:30:27;17.15;;;3.60;;
20251;SDS011;10284;58.364;15.550;2023-03-23T07:32:54;14.95;;;3.17;;
20251;SDS011;10284;58.364;15.550;2023-03-23T07:35:20;14.75;;;3.40;;
20251;SDS011;10284;58.364;15.550;2023-03-23T07:37:45;13.88;;;3.25;;
20251;SDS011;10284;58.364;15.550;2023-03-23T07:40:13;16.30;;;3.30;;
20251;SDS011;10284;58.364;15.550;2023-03-23T07:42:43;14.63;;;3.20;;
20251;SDS011;10284;58.364;15.550;2023-03-23T07:45:10;19.95;;;4.90;;
20251;SDS011;10284;58.364;15.550;2023-03-23T07:47:36;15.27;;;3.63;;
20251;SDS011;10284;58.364;15.550;2023-03-23T07:50:03;18.13;;;3.92;;
20251;SDS011;10284;58.364;15.550;2023-03-23T07:52:29;12.63;;;3.70;;
20251;SDS011;10284;58.364;15.550;2023-03-23T07:54:55;17.02;;;3.78;;
20251;SDS011;10284;58.364;15.550;2023-03-23T07:57:21;14.70;;;3.58;;
20251;SDS011;10284;58.364;15.550;2023-03-23T07:59:47;15.82;;;3.83;;
20251;SDS011;10284;58.364;15.550;2023-03-23T08:02:12;17.25;;;3.50;;
20251;SDS011;10284;58.364;15.550;2023-03-23T08:04:38;17.45;;;3.15;;
20251;SDS011;10284;58.364;15.550;2023-03-23T08:07:04;15.70;;;3.35;;
20251;SDS011;10284;58.364;15.550;2023-03-23T08:09:30;13.93;;;3.03;;
20251;SDS011;10284;58.364;15.550;2023-03-23T08:11:55;11.18;;;3.45;;
20251;SDS011;10284;58.364;15.550;2023-03-23T08:14:21;15.27;;;3.35;;
20251;SDS011;10284;58.364;15.550;2023-03-23T08:16:47;16.08;;;3.45;;
20251;SDS011;10284;58.364;15.550;2023-03-23T08:19:13;12.88;;;2.65;;
20251;SDS011;10284;58.364;15.550;2023-03-23T08:21:39;10.30;;;2.97;;
20251;SDS011;10284;58.364;15.550;2023-03-23T08:24:04;16.65;;;3.38;;
20251;SDS011;10284;58.364;15.550;2023-03-23T08:26:31;10.00;;;2.80;;
20251;SDS011;10284;58.364;15.550;2023-03-23T08:28:56;14.38;;;3.00;;
20251;SDS011;10284;58.364;15.550;2023-03-23T08:31:22;11.05;;;3.10;;
20251;SDS011;10284;58.364;15.550;2023-03-23T08:33:48;8.45;;;2.90;;
20251;SDS011;10284;58.364;15.550;2023-03-23T08:36:14;13.43;;;3.25;;
20251;SDS011;10284;58.364;15.550;2023-03-23T08:38:39;14.75;;;3.38;;
20251;SDS011;10284;58.364;15.550;2023-03-23T08:41:05;11.43;;;3.22;;
20251;SDS011;10284;58.364;15.550;2023-03-23T08:43:31;13.77;;;2.78;;
20251;SDS011;10284;58.364;15.550;2023-03-23T08:45:58;7.50;;;2.80;;
20251;SDS011;10284;58.364;15.550;2023-03-23T08:48:24;10.43;;;2.50;;
20251;SDS011;10284;58.364;15.550;2023-03-23T08:50:50;16.38;;;2.80;;
20251;SDS011;10284;58.364;15.550;2023-03-23T08:53:17;11.95;;;2.75;;
20251;SDS011;10284;58.364;15.550;2023-03-23T08:55:43;8.10;;;2.28;;
20251;SDS011;10284;58.364;15.550;2023-03-23T08:58:09;6.90;;;2.70;;
20251;SDS011;10284;58.364;15.550;2023-03-23T09:00:35;12.65;;;3.55;;
20251;SDS011;10284;58.364;15.550;2023-03-23T09:03:00;7.28;;;2.40;;
20251;SDS011;10284;58.364;15.550;2023-03-23T09:05:27;7.10;;;2.47;;
20251;SDS011;10284;58.364;15.550;2023-03-23T09:07:54;10.80;;;2.80;;
20251;SDS011;10284;58.364;15.550;2023-03-23T09:10:24;7.35;;;2.45;;
20251;SDS011;10284;58.364;15.550;2023-03-23T09:12:55;6.93;;;2.50;;
20251;SDS011;10284;58.364;15.550;2023-03-23T09:15:21;8.88;;;2.33;;
20251;SDS011;10284;58.364;15.550;2023-03-23T09:17:48;7.57;;;2.35;;
20251;SDS011;10284;58.364;15.550;2023-03-23T09:20:16;5.97;;;2.33;;
20251;SDS011;10284;58.364;15.550;2023-03-23T09:22:44;8.45;;;2.45;;
20251;SDS011;10284;58.364;15.550;2023-03-23T09:25:12;5.82;;;1.83;;
20251;SDS011;10284;58.364;15.550;2023-03-23T09:27:40;8.77;;;2.47;;
20251;SDS011;10284;58.364;15.550;2023-03-23T09:30:07;9.77;;;2.25;;
20251;SDS011;10284;58.364;15.550;2023-03-23T09:32:35;6.65;;;2.30;;
20251;SDS011;10284;58.364;15.550;2023-03-23T09:35:02;7.05;;;2.45;;
20251;SDS011;10284;58.364;15.550;2023-03-23T09:37:29;8.18;;;1.90;;
20251;SDS011;10284;58.364;15.550;2023-03-23T09:39:55;10.10;;;1.98;;
20251;SDS011;10284;58.364;15.550;2023-03-23T09:42:30;4.00;;;1.75;;
20251;SDS011;10284;58.364;15.550;2023-03-23T09:45:06;6.55;;;1.60;;
20251;SDS011;10284;58.364;15.550;2023-03-23T09:47:56;5.75;;;2.03;;
20251;SDS011;10284;58.364;15.550;2023-03-23T09:50:28;7.15;;;1.73;;
20251;SDS011;10284;58.364;15.550;2023-03-23T09:53:01;5.80;;;1.95;;
20251;SDS011;10284;58.364;15.550;2023-03-23T09:55:34;7.13;;;2.08;;
20251;SDS011;10284;58.364;15.550;2023-03-23T10:00:45;6.60;;;2.00;;
20251;SDS011;10284;58.364;15.550;2023-03-23T10:03:17;5.95;;;2.25;;
20251;SDS011;10284;58.364;15.550;2023-03-23T10:05:45;9.35;;;2.20;;
20251;SDS011;10284;58.364;15.550;2023-03-23T10:08:19;9.27;;;2.03;;
20251;SDS011;10284;58.364;15.550;2023-03-23T10:10:52;7.65;;;2.38;;
20251;SDS011;10284;58.364;15.550;2023-03-23T10:14:02;7.88;;;2.20;;
20251;SDS011;10284;58.364;15.550;2023-03-23T10:16:23;5.38;;;1.55;;
20251;SDS011;10284;58.364;15.550;2023-03-23T10:21:35;6.97;;;1.85;;
20251;SDS011;10284;58.364;15.550;2023-03-23T10:24:04;6.68;;;2.28;;
20251;SDS011;10284;58.364;15.550;2023-03-23T10:29:22;16.63;;;2.95;;
20251;SDS011;10284;58.364;15.550;2023-03-23T10:37:01;11.52;;;2.78;;
20251;SDS011;10284;58.364;15.550;2023-03-23T10:39:37;10.30;;;2.20;;
20251;SDS011;10284;58.364;15.550;2023-03-23T10:42:08;8.98;;;2.60;;
20251;SDS011;10284;58.364;15.550;2023-03-23T10:44:34;8.30;;;2.65;;
20251;SDS011;10284;58.364;15.550;2023-03-23T10:47:02;13.98;;;3.00;;
20251;SDS011;10284;58.364;15.550;2023-03-23T10:49:40;12.27;;;2.40;;
20251;SDS011;10284;58.364;15.550;2023-03-23T10:54:54;10.00;;;2.40;;
20251;SDS011;10284;58.364;15.550;2023-03-23T10:57:31;8.52;;;2.20;;
20251;SDS011;10284;58.364;15.550;2023-03-23T11:00:03;4.97;;;2.20;;
20251;SDS011;10284;58.364;15.550;2023-03-23T11:03:03;8.90;;;2.55;;
20251;SDS011;10284;58.364;15.550;2023-03-23T11:05:32;8.80;;;2.50;;
20251;SDS011;10284;58.364;15.550;2023-03-23T11:08:01;9.95;;;2.75;;
20251;SDS011;10284;58.364;15.550;2023-03-23T11:10:28;8.30;;;2.50;;
20251;SDS011;10284;58.364;15.550;2023-03-23T11:13:00;10.48;;;2.50;;
20251;SDS011;10284;58.364;15.550;2023-03-23T11:18:03;9.32;;;2.47;;
20251;SDS011;10284;58.364;15.550;2023-03-23T11:20:36;9.18;;;2.47;;
20251;SDS011;10284;58.364;15.550;2023-03-23T11:23:08;13.20;;;2.90;;
20251;SDS011;10284;58.364;15.550;2023-03-23T11:28:27;12.07;;;2.72;;
20251;SDS011;10284;58.364;15.550;2023-03-23T11:30:56;7.95;;;2.50;;
20251;SDS011;10284;58.364;15.550;2023-03-23T11:33:23;9.32;;;2.40;;
20251;SDS011;10284;58.364;15.550;2023-03-23T11:35:50;8.35;;;2.47;;
20251;SDS011;10284;58.364;15.550;2023-03-23T11:38:19;7.47;;;2.17;;
20251;SDS011;10284;58.364;15.550;2023-03-23T11:40:49;7.35;;;2.08;;
20251;SDS011;10284;58.364;15.550;2023-03-23T11:43:23;10.70;;;2.58;;
20251;SDS011;10284;58.364;15.550;2023-03-23T11:51:06;7.03;;;2.33;;
20251;SDS011;10284;58.364;15.550;2023-03-23T11:56:37;5.82;;;2.65;;
20251;SDS011;10284;58.364;15.550;2023-03-23T11:59:38;9.25;;;2.00;;
20251;SDS011;10284;58.364;15.550;2023-03-23T12:02:23;9.45;;;2.35;;
20251;SDS011;10284;58.364;15.550;2023-03-23T12:44:06;4.43;;;1.50;;
20251;SDS011;10284;58.364;15.550;2023-03-23T12:46:41;7.43;;;1.77;;
20251;SDS011;10284;58.364;15.550;2023-03-23T12:54:54;5.07;;;1.20;;
20251;SDS011;10284;58.364;15.550;2023-03-23T12:57:45;3.72;;;1.23;;
20251;SDS011;10284;58.364;15.550;2023-03-23T13:02:55;7.88;;;1.70;;
20251;SDS011;10284;58.364;15.550;2023-03-23T13:05:28;4.53;;;1.63;;
20251;SDS011;10284;58.364;15.550;2023-03-23T13:08:03;4.90;;;1.42;;
20251;SDS011;10284;58.364;15.550;2023-03-23T13:10:33;3.17;;;1.15;;
20251;SDS011;10284;58.364;15.550;2023-03-23T13:13:02;4.32;;;1.10;;
20251;SDS011;10284;58.364;15.550;2023-03-23T13:20:27;3.45;;;1.08;;
20251;SDS011;10284;58.364;15.550;2023-03-23T13:28:23;5.05;;;1.20;;
20251;SDS011;10284;58.364;15.550;2023-03-23T13:30:57;4.07;;;0.93;;
20251;SDS011;10284;58.364;15.550;2023-03-23T13:33:23;3.60;;;0.82;;
20251;SDS011;10284;58.364;15.550;2023-03-23T13:35:50;4.10;;;1.20;;
20251;SDS011;10284;58.364;15.550;2023-03-23T13:38:28;3.55;;;1.00;;
20251;SDS011;10284;58.364;15.550;2023-03-23T13:40:54;6.57;;;1.33;;
20251;SDS011;10284;58.364;15.550;2023-03-23T13:43:28;4.80;;;1.42;;
20251;SDS011;10284;58.364;15.550;2023-03-23T13:46:11;2.50;;;0.90;;
20251;SDS011;10284;58.364;15.550;2023-03-23T13:49:20;4.15;;;1.33;;
20251;SDS011;10284;58.364;15.550;2023-03-23T13:54:19;8.50;;;1.10;;
20251;SDS011;10284;58.364;15.550;2023-03-23T13:56:52;4.55;;;1.13;;
20251;SDS011;10284;58.364;15.550;2023-03-23T14:01:51;3.47;;;0.90;;
20251;SDS011;10284;58.364;15.550;2023-03-23T14:04:18;6.32;;;1.40;;
20251;SDS011;10284;58.364;15.550;2023-03-23T14:06:44;3.78;;;0.95;;
20251;SDS011;10284;58.364;15.550;2023-03-23T14:12:02;1.08;;;0.45;;
20251;SDS011;10284;58.364;15.550;2023-03-23T14:15:18;0.40;;;0.30;;
20251;SDS011;10284;58.364;15.550;2023-03-23T14:17:28;0.80;;;0.30;;
20251;SDS011;10284;58.364;15.550;2023-03-23T14:19:57;1.02;;;0.30;;
20251;SDS011;10284;58.364;15.550;2023-03-23T14:22:24;0.68;;;0.60;;
20251;SDS011;10284;58.364;15.550;2023-03-23T14:24:52;2.15;;;0.40;;
20251;SDS011;10284;58.364;15.550;2023-03-23T14:27:26;1.38;;;0.40;;
20251;SDS011;10284;58.364;15.550;2023-03-23T14:30:02;0.73;;;0.30;;
20251;SDS011;10284;58.364;15.550;2023-03-23T14:32:32;0.95;;;0.30;;
20251;SDS011;10284;58.364;15.550;2023-03-23T14:34:58;0.88;;;0.45;;
20251;SDS011;10284;58.364;15.550;2023-03-23T14:37:25;0.50;;;0.50;;
20251;SDS011;10284;58.364;15.550;2023-03-23T14:39:52;1.42;;;0.57;;
20251;SDS011;10284;58.364;15.550;2023-03-23T14:42:25;0.90;;;0.60;;
20251;SDS011;10284;58.364;15.550;2023-03-23T14:44:54;1.60;;;0.60;;
20251;SDS011;10284;58.364;15.550;2023-03-23T14:47:21;2.13;;;0.45;;
20251;SDS011;10284;58.364;15.550;2023-03-23T14:49:57;3.00;;;1.02;;
20251;SDS011;10284;58.364;15.550;2023-03-23T14:52:32;1.55;;;0.60;;
20251;SDS011;10284;58.364;15.550;2023-03-23T14:55:11;1.58;;;0.70;;
20251;SDS011;10284;58.364;15.550;2023-03-23T14:57:41;1.98;;;0.60;;
20251;SDS011;10284;58.364;15.550;2023-03-23T15:00:11;0.93;;;0.68;;
20251;SDS011;10284;58.364;15.550;2023-03-23T15:02:40;2.33;;;0.80;;
20251;SDS011;10284;58.364;15.550;2023-03-23T15:05:09;2.38;;;0.82;;
20251;SDS011;10284;58.364;15.550;2023-03-23T15:07:36;1.48;;;0.60;;
20251;SDS011;10284;58.364;15.550;2023-03-23T15:10:09;1.08;;;0.50;;
20251;SDS011;10284;58.364;15.550;2023-03-23T15:12:39;1.35;;;0.70;;
20251;SDS011;10284;58.364;15.550;2023-03-23T15:15:05;1.35;;;0.65;;
20251;SDS011;10284;58.364;15.550;2023-03-23T15:17:34;4.20;;;0.90;;
20251;SDS011;10284;58.364;15.550;2023-03-23T15:20:10;3.10;;;0.60;;
20251;SDS011;10284;58.364;15.550;2023-03-23T15:22:45;2.00;;;0.80;;
20251;SDS011;10284;58.364;15.550;2023-03-23T15:25:12;2.75;;;0.80;;
20251;SDS011;10284;58.364;15.550;2023-03-23T15:27:52;2.08;;;0.82;;
20251;SDS011;10284;58.364;15.550;2023-03-23T15:32:47;4.78;;;0.80;;
20251;SDS011;10284;58.364;15.550;2023-03-23T15:35:15;1.10;;;0.52;;
20251;SDS011;10284;58.364;15.550;2023-03-23T15:37:44;1.83;;;0.70;;
20251;SDS011;10284;58.364;15.550;2023-03-23T15:40:23;0.77;;;0.55;;
20251;SDS011;10284;58.364;15.550;2023-03-23T15:42:50;2.75;;;0.70;;
20251;SDS011;10284;58.364;15.550;2023-03-23T15:45:30;1.33;;;0.60;;
20251;SDS011;10284;58.364;15.550;2023-03-23T15:47:57;1.50;;;0.75;;
20251;SDS011;10284;58.364;15.550;2023-03-23T15:52:55;2.78;;;1.02;;
20251;SDS011;10284;58.364;15.550;2023-03-23T15:55:24;3.47;;;0.82;;
20251;SDS011;10284;58.364;15.550;2023-03-23T15:57:55;4.35;;;0.80;;
20251;SDS011;10284;58.364;15.550;2023-03-23T16:00:22;1.75;;;0.98;;
20251;SDS011;10284;58.364;15.550;2023-03-23T16:02:54;1.52;;;0.90;;
20251;SDS011;10284;58.364;15.550;2023-03-23T16:05:21;1.92;;;0.70;;
20251;SDS011;10284;58.364;15.550;2023-03-23T16:07:47;2.33;;;0.82;;
20251;SDS011;10284;58.364;15.550;2023-03-23T16:10:16;3.30;;;0.70;;
20251;SDS011;10284;58.364;15.550;2023-03-23T16:12:43;3.25;;;0.75;;
20251;SDS011;10284;58.364;15.550;2023-03-23T16:15:09;2.15;;;0.68;;
20251;SDS011;10284;58.364;15.550;2023-03-23T16:17:35;1.42;;;0.60;;
20251;SDS011;10284;58.364;15.550;2023-03-23T16:20:01;2.17;;;0.90;;
20251;SDS011;10284;58.364;15.550;2023-03-23T16:22:28;3.05;;;0.95;;
20251;SDS011;10284;58.364;15.550;2023-03-23T16:24:53;1.98;;;0.82;;
20251;SDS011;10284;58.364;15.550;2023-03-23T16:27:19;4.43;;;0.85;;
20251;SDS011;10284;58.364;15.550;2023-03-23T16:29:45;0.90;;;0.60;;
20251;SDS011;10284;58.364;15.550;2023-03-23T16:32:11;3.20;;;0.90;;
20251;SDS011;10284;58.364;15.550;2023-03-23T16:34:36;1.35;;;0.90;;
20251;SDS011;10284;58.364;15.550;2023-03-23T16:37:07;2.05;;;0.90;;
20251;SDS011;10284;58.364;15.550;2023-03-23T16:39:34;3.58;;;0.98;;
20251;SDS011;10284;58.364;15.550;2023-03-23T16:41:59;2.88;;;0.80;;
20251;SDS011;10284;58.364;15.550;2023-03-23T16:44:25;1.80;;;0.70;;